Time;durP1;ratioP1;P1;durP2;ratioP2;P2;SDS_P1;SDS_P2;PMS_P1;PMS_P2;Temp;Humidity;BMP_temperature;BMP_pressure;BME280_temperature;BME280_humidity;BME280_pressure;Samples;Min_cycle;Max_cycle;Signal;HPM_P1;HPM_P2
2021/07/28 00:01:29;;;;;;;12.82;8.15;;;19.80;99.90;;;;;;5052197;28;20037;-70
2021/07/28 00:03:54;;;;;;;10.45;7.90;;;19.90;99.90;;;;;;5053335;28;20085;-72
2021/07/28 00:06:21;;;;;;;11.73;8.57;;;19.90;99.90;;;;;;5049637;28;20036;-70
2021/07/28 00:08:48;;;;;;;10.00;8.00;;;19.80;99.90;;;;;;5053939;28;20020;-75
2021/07/28 00:11:15;;;;;;;11.20;7.82;;;19.70;99.90;;;;;;5053549;28;20033;-70
2021/07/28 00:13:41;;;;;;;8.93;7.18;;;19.80;99.90;;;;;;5050706;28;20556;-70
2021/07/28 00:16:13;;;;;;;11.25;8.20;;;19.80;99.90;;;;;;5046114;28;20523;-71
2021/07/28 00:23:53;;;;;;;9.80;7.82;;;19.90;99.90;;;;;;5049146;28;20043;-70
2021/07/28 00:26:19;;;;;;;11.90;8.48;;;19.80;99.90;;;;;;5051696;28;20025;-70
2021/07/28 00:28:44;;;;;;;11.00;7.53;;;19.80;99.90;;;;;;5052542;28;20059;-72
2021/07/28 00:31:10;;;;;;;12.07;8.45;;;19.80;99.90;;;;;;5050128;28;20469;-70
2021/07/28 00:33:36;;;;;;;11.95;8.93;;;19.80;99.90;;;;;;5050055;28;20029;-70
2021/07/28 00:36:01;;;;;;;9.55;7.97;;;19.80;99.90;;;;;;5049971;28;20024;-73
2021/07/28 00:38:27;;;;;;;11.30;7.35;;;19.80;99.90;;;;;;5057609;28;20033;-70
2021/07/28 00:40:53;;;;;;;13.45;6.65;;;19.80;99.90;;;;;;5055096;28;20167;-70
2021/07/28 00:43:23;;;;;;;12.65;7.45;;;19.70;99.90;;;;;;5054227;28;20033;-70
2021/07/28 00:45:49;;;;;;;9.02;7.43;;;19.70;99.90;;;;;;5052910;28;20021;-70
2021/07/28 00:48:15;;;;;;;9.27;7.10;;;19.70;99.90;;;;;;5056164;28;20433;-70
2021/07/28 00:50:41;;;;;;;10.60;7.35;;;19.70;99.90;;;;;;5057093;28;20021;-70
2021/07/28 00:53:08;;;;;;;12.25;7.63;;;19.60;99.90;;;;;;5062047;28;20041;-70
2021/07/28 00:55:33;;;;;;;9.52;7.25;;;19.70;99.90;;;;;;5054030;28;20022;-70
2021/07/28 00:58:00;;;;;;;10.75;8.50;;;19.60;99.90;;;;;;5066028;28;20552;-70
2021/07/28 01:00:27;;;;;;;14.63;8.38;;;19.60;99.90;;;;;;5053011;28;20039;-71
2021/07/28 01:02:53;;;;;;;12.40;7.70;;;19.60;99.90;;;;;;5065957;28;20052;-71
2021/07/28 01:05:19;;;;;;;10.50;7.05;;;19.60;99.90;;;;;;5056828;28;20501;-70
2021/07/28 01:07:44;;;;;;;10.98;7.38;;;19.60;99.90;;;;;;5064111;28;20024;-70
2021/07/28 01:10:11;;;;;;;11.05;7.63;;;19.60;99.90;;;;;;5061618;28;20370;-70
2021/07/28 01:12:42;;;;;;;14.10;8.18;;;19.50;99.90;;;;;;5047285;28;20029;-70
2021/07/28 01:15:09;;;;;;;14.05;8.00;;;19.50;99.90;;;;;;5060478;28;20055;-70
2021/07/28 01:17:36;;;;;;;13.07;8.52;;;19.50;99.90;;;;;;5046459;28;20026;-70
2021/07/28 01:20:05;;;;;;;10.88;8.13;;;19.40;99.90;;;;;;5064464;28;20020;-70
2021/07/28 01:22:33;;;;;;;12.18;7.65;;;19.40;99.90;;;;;;5052365;28;20083;-71
2021/07/28 01:24:59;;;;;;;12.60;8.57;;;19.40;99.90;;;;;;5060023;28;20028;-70
2021/07/28 01:27:26;;;;;;;8.80;7.88;;;19.40;99.90;;;;;;5056777;28;20029;-71
2021/07/28 01:29:51;;;;;;;11.88;8.63;;;19.30;99.90;;;;;;5057932;28;20384;-70
2021/07/28 01:32:17;;;;;;;12.45;8.60;;;19.30;99.90;;;;;;5063790;28;20525;-70
2021/07/28 01:34:44;;;;;;;13.10;8.38;;;19.30;99.90;;;;;;5065193;28;20024;-69
2021/07/28 01:37:12;;;;;;;11.65;8.95;;;19.30;99.90;;;;;;5059347;28;20048;-70
2021/07/28 01:39:37;;;;;;;10.68;8.55;;;19.30;99.90;;;;;;5061149;28;20021;-69
2021/07/28 01:42:03;;;;;;;14.60;9.20;;;19.30;99.90;;;;;;5067612;28;20100;-71
2021/07/28 01:44:32;;;;;;;12.30;8.88;;;19.20;99.90;;;;;;5059377;28;20547;-70
2021/07/28 01:46:58;;;;;;;11.73;8.98;;;19.20;99.90;;;;;;5047191;28;20028;-70
2021/07/28 01:49:23;;;;;;;12.50;8.77;;;19.20;99.90;;;;;;5060399;28;20408;-70
2021/07/28 01:51:49;;;;;;;13.02;9.38;;;19.20;99.90;;;;;;5066270;28;20064;-70
2021/07/28 01:54:15;;;;;;;15.40;8.82;;;19.20;99.90;;;;;;5056875;28;20091;-70
2021/07/28 01:56:43;;;;;;;15.23;8.32;;;19.20;99.90;;;;;;5062708;28;20024;-70
2021/07/28 01:59:15;;;;;;;10.55;8.20;;;19.20;99.90;;;;;;5061724;28;20043;-71
2021/07/28 02:01:41;;;;;;;11.43;8.10;;;19.20;99.90;;;;;;5054719;28;20029;-70
2021/07/28 02:04:06;;;;;;;10.77;8.25;;;19.20;99.90;;;;;;5064283;28;20037;-71
2021/07/28 02:06:33;;;;;;;12.10;8.88;;;19.20;99.90;;;;;;5063067;28;20062;-70
2021/07/28 02:08:58;;;;;;;9.10;8.00;;;19.10;99.90;;;;;;5055905;28;20524;-73
2021/07/28 02:11:24;;;;;;;10.02;8.00;;;19.10;99.90;;;;;;5054418;28;20029;-69
2021/07/28 02:13:49;;;;;;;12.63;8.55;;;19.10;99.90;;;;;;5054667;28;20413;-70
2021/07/28 02:16:15;;;;;;;11.10;7.88;;;19.00;99.90;;;;;;5063342;28;20025;-70
2021/07/28 02:18:41;;;;;;;14.55;9.65;;;19.00;99.90;;;;;;5056520;28;20025;-70
2021/07/28 02:21:06;;;;;;;12.68;8.70;;;18.90;99.90;;;;;;5058999;28;20032;-72
2021/07/28 02:23:32;;;;;;;14.77;9.90;;;19.00;99.90;;;;;;5058020;28;20478;-72
2021/07/28 02:25:58;;;;;;;11.20;8.40;;;19.00;99.90;;;;;;5057511;28;20024;-70
2021/07/28 02:28:24;;;;;;;11.30;9.75;;;19.00;99.90;;;;;;5058795;28;20025;-70
2021/07/28 02:30:49;;;;;;;12.43;9.25;;;19.00;99.90;;;;;;5059682;28;20424;-70
2021/07/28 02:33:15;;;;;;;13.93;8.88;;;19.00;99.90;;;;;;5060686;28;20044;-70
2021/07/28 02:35:41;;;;;;;12.10;9.25;;;19.00;99.90;;;;;;5057961;28;20075;-70
2021/07/28 02:38:06;;;;;;;14.77;9.05;;;19.00;99.90;;;;;;5067199;28;20432;-70
2021/07/28 02:40:32;;;;;;;12.80;9.15;;;19.00;99.90;;;;;;5065626;28;20017;-70
2021/07/28 02:42:58;;;;;;;13.20;9.35;;;18.90;99.90;;;;;;5062814;28;20410;-70
2021/07/28 02:45:23;;;;;;;13.63;9.68;;;18.90;99.90;;;;;;5058270;28;20044;-70
2021/07/28 02:47:49;;;;;;;13.18;8.68;;;19.00;99.90;;;;;;5063335;28;20027;-69
2021/07/28 02:50:15;;;;;;;12.15;9.23;;;19.10;99.90;;;;;;5061450;28;20166;-70
2021/07/28 02:52:40;;;;;;;17.10;10.18;;;19.10;99.90;;;;;;5059519;28;20040;-70
2021/07/28 02:55:06;;;;;;;12.50;9.77;;;19.10;99.90;;;;;;5056657;28;20382;-70
2021/07/28 02:57:36;;;;;;;12.15;9.27;;;19.00;99.90;;;;;;5061671;28;20036;-70
2021/07/28 03:00:07;;;;;;;15.75;9.52;;;19.00;99.90;;;;;;5061837;28;20017;-70
2021/07/28 03:02:33;;;;;;;13.05;9.13;;;19.00;99.90;;;;;;5059927;28;20425;-70
2021/07/28 03:04:59;;;;;;;16.83;10.55;;;19.00;99.90;;;;;;5064039;28;20124;-70
2021/07/28 03:07:24;;;;;;;13.50;9.65;;;19.00;99.90;;;;;;5062925;28;20033;-70
2021/07/28 03:09:50;;;;;;;15.05;10.00;;;19.00;99.90;;;;;;5064534;28;20023;-70
2021/07/28 03:12:16;;;;;;;22.02;11.57;;;19.00;99.90;;;;;;5050723;28;20057;-70
2021/07/28 03:14:41;;;;;;;14.20;9.75;;;19.00;99.90;;;;;;5067132;28;20525;-70
2021/07/28 03:17:07;;;;;;;13.18;10.00;;;19.00;99.90;;;;;;5061712;28;20027;-70
2021/07/28 03:19:33;;;;;;;16.60;10.63;;;19.10;99.90;;;;;;5064106;28;20424;-69
2021/07/28 03:21:58;;;;;;;16.70;10.85;;;19.10;99.90;;;;;;5054979;28;20043;-70
2021/07/28 03:24:24;;;;;;;14.18;10.63;;;19.10;99.90;;;;;;5070082;28;20029;-71
2021/07/28 03:26:50;;;;;;;17.10;10.38;;;19.20;99.90;;;;;;5057686;28;20111;-70
2021/07/28 03:29:16;;;;;;;15.45;10.45;;;19.10;99.90;;;;;;5055212;28;20548;-70
2021/07/28 03:31:41;;;;;;;13.02;10.57;;;19.20;99.90;;;;;;5059255;28;20059;-70
2021/07/28 03:34:07;;;;;;;16.08;11.15;;;19.10;99.90;;;;;;5064017;28;20032;-70
2021/07/28 03:36:33;;;;;;;13.18;10.13;;;19.20;99.90;;;;;;5057399;28;20025;-70
2021/07/28 03:38:58;;;;;;;15.52;10.35;;;19.10;99.90;;;;;;5058924;28;20033;-70
2021/07/28 03:41:24;;;;;;;15.73;10.90;;;19.10;99.90;;;;;;5066317;28;20020;-70
2021/07/28 03:43:50;;;;;;;19.05;10.75;;;19.10;99.90;;;;;;5065941;28;20507;-69
2021/07/28 03:46:15;;;;;;;19.17;9.88;;;19.00;99.90;;;;;;5047704;28;20026;-69
2021/07/28 03:48:41;;;;;;;15.50;10.90;;;19.00;99.90;;;;;;5053782;28;20064;-70
2021/07/28 03:51:06;;;;;;;16.55;10.75;;;19.10;99.90;;;;;;5059486;28;20017;-69
2021/07/28 03:53:34;;;;;;;12.65;9.43;;;18.90;99.90;;;;;;5063514;28;20107;-70
2021/07/28 03:56:00;;;;;;;12.77;10.00;;;19.00;99.90;;;;;;5061907;28;20040;-70
2021/07/28 03:58:26;;;;;;;19.85;10.95;;;19.00;99.90;;;;;;5055405;28;20029;-70
2021/07/28 04:00:51;;;;;;;13.43;10.48;;;19.00;99.90;;;;;;5061009;28;20032;-70
2021/07/28 04:03:17;;;;;;;19.30;10.50;;;18.90;99.90;;;;;;5058986;28;20499;-70
2021/07/28 04:05:42;;;;;;;14.48;10.73;;;19.00;99.90;;;;;;5059952;28;20017;-70
2021/07/28 04:08:08;;;;;;;12.50;9.43;;;19.10;99.90;;;;;;5064272;28;20060;-70
2021/07/28 04:10:35;;;;;;;12.77;9.68;;;19.20;99.90;;;;;;5058692;28;20079;-70
2021/07/28 04:13:00;;;;;;;13.73;9.70;;;19.10;99.90;;;;;;5047693;28;20037;-70
2021/07/28 04:15:26;;;;;;;17.95;11.05;;;19.00;99.90;;;;;;5062436;28;20429;-70
2021/07/28 04:17:52;;;;;;;15.85;11.23;;;19.10;99.90;;;;;;5063266;28;20556;-70
2021/07/28 04:20:17;;;;;;;14.57;9.82;;;19.10;99.90;;;;;;5062424;28;20393;-71
2021/07/28 04:22:43;;;;;;;14.25;10.05;;;19.10;99.90;;;;;;5057005;28;20104;-70
2021/07/28 04:25:10;;;;;;;13.15;11.50;;;19.20;99.90;;;;;;5057090;28;20040;-70
2021/07/28 04:27:36;;;;;;;15.25;10.98;;;19.20;99.90;;;;;;5063385;28;20021;-70
2021/07/28 04:30:05;;;;;;;14.18;10.18;;;19.20;99.90;;;;;;5058966;28;20461;-70
2021/07/28 04:32:30;;;;;;;15.35;10.50;;;19.20;99.90;;;;;;5054792;28;20029;-70
2021/07/28 04:34:56;;;;;;;16.58;10.35;;;19.30;99.90;;;;;;5054987;28;20028;-70
2021/07/28 04:37:22;;;;;;;17.20;9.82;;;19.30;99.90;;;;;;5065062;28;20021;-69
2021/07/28 04:39:47;;;;;;;14.20;9.45;;;19.30;99.90;;;;;;5050725;28;20028;-70
2021/07/28 04:42:13;;;;;;;14.32;11.18;;;19.20;99.90;;;;;;5064814;28;20028;-70
2021/07/28 04:44:39;;;;;;;14.32;9.73;;;19.30;99.90;;;;;;5061245;28;20025;-70
2021/07/28 04:47:05;;;;;;;15.55;11.13;;;19.30;99.90;;;;;;5056372;28;20031;-70
2021/07/28 04:49:30;;;;;;;14.10;10.40;;;19.30;99.90;;;;;;5058724;28;20066;-70
2021/07/28 04:51:56;;;;;;;14.05;10.80;;;19.30;99.90;;;;;;5066852;28;20393;-71
2021/07/28 04:54:21;;;;;;;12.90;9.07;;;19.30;99.90;;;;;;5062753;28;20020;-69
2021/07/28 04:56:47;;;;;;;16.27;11.07;;;19.20;99.90;;;;;;5050742;28;20043;-71
2021/07/28 04:59:13;;;;;;;13.23;9.70;;;19.30;99.90;;;;;;5059903;28;20044;-70
2021/07/28 05:01:38;;;;;;;14.20;11.05;;;19.30;99.90;;;;;;5058053;28;20139;-70
2021/07/28 05:04:05;;;;;;;11.23;10.02;;;19.40;99.90;;;;;;5056415;28;20474;-69
2021/07/28 05:06:31;;;;;;;15.93;10.30;;;19.40;99.90;;;;;;5060359;28;20024;-71
2021/07/28 05:08:57;;;;;;;12.90;9.98;;;19.20;99.90;;;;;;5055881;28;20104;-71
2021/07/28 05:11:23;;;;;;;13.40;10.45;;;19.30;99.90;;;;;;5049074;28;20112;-71
2021/07/28 05:13:49;;;;;;;13.25;10.68;;;19.40;99.90;;;;;;5049572;28;20072;-71
2021/07/28 05:16:14;;;;;;;12.73;8.88;;;19.30;99.90;;;;;;5042079;28;20074;-70
2021/07/28 05:18:40;;;;;;;12.60;9.93;;;19.30;99.90;;;;;;5050476;28;20041;-69
2021/07/28 05:21:06;;;;;;;14.63;10.85;;;19.40;99.90;;;;;;5053170;28;20044;-69
2021/07/28 05:23:32;;;;;;;12.93;9.55;;;19.30;99.90;;;;;;5061806;28;20033;-70
2021/07/28 05:25:58;;;;;;;16.27;10.32;;;19.40;99.90;;;;;;5058390;28;20033;-70
2021/07/28 05:28:23;;;;;;;17.80;10.93;;;19.30;99.90;;;;;;5055218;28;20179;-70
2021/07/28 05:30:49;;;;;;;17.50;10.02;;;19.30;99.90;;;;;;5062148;28;20473;-70
2021/07/28 05:33:15;;;;;;;13.00;9.98;;;19.40;99.90;;;;;;5054886;28;20041;-69
2021/07/28 05:35:46;;;;;;;13.63;10.15;;;19.40;99.90;;;;;;5062895;28;20384;-69
2021/07/28 05:38:12;;;;;;;14.00;9.48;;;19.40;99.90;;;;;;5053619;28;20094;-70
2021/07/28 05:40:37;;;;;;;14.20;10.05;;;19.30;99.90;;;;;;5045063;28;20462;-69
2021/07/28 05:43:03;;;;;;;13.23;9.60;;;19.40;99.90;;;;;;5056817;28;20389;-70
2021/07/28 05:45:29;;;;;;;14.77;11.52;;;19.50;99.90;;;;;;5057723;28;20029;-70
2021/07/28 05:47:54;;;;;;;15.80;9.60;;;19.60;99.90;;;;;;5052501;28;20366;-73
2021/07/28 05:50:20;;;;;;;12.90;10.38;;;19.50;99.90;;;;;;5058522;28;20028;-70
2021/07/28 05:52:46;;;;;;;13.02;9.07;;;19.70;99.90;;;;;;5048470;28;20033;-70
2021/07/28 05:55:12;;;;;;;14.90;10.52;;;19.60;99.90;;;;;;5057140;28;20037;-69
2021/07/28 05:57:38;;;;;;;12.85;10.00;;;19.40;99.90;;;;;;5051776;28;20036;-71
2021/07/28 06:00:04;;;;;;;16.17;10.60;;;19.40;99.90;;;;;;5056576;28;20086;-70
2021/07/28 06:02:30;;;;;;;13.32;9.95;;;19.60;99.90;;;;;;5052510;28;20029;-71
2021/07/28 06:04:56;;;;;;;13.32;8.73;;;19.70;99.90;;;;;;5055082;28;20025;-69
2021/07/28 06:07:21;;;;;;;13.05;9.10;;;19.60;99.90;;;;;;5051763;28;20714;-70
2021/07/28 06:09:47;;;;;;;14.43;8.88;;;19.60;99.90;;;;;;5057994;28;20036;-72
2021/07/28 06:12:16;;;;;;;13.13;9.60;;;19.60;99.90;;;;;;5059003;28;20083;-70
2021/07/28 06:14:43;;;;;;;13.27;8.75;;;19.70;99.90;;;;;;5053564;28;20033;-69
2021/07/28 06:17:09;;;;;;;13.65;8.32;;;19.70;99.90;;;;;;5061390;28;20025;-72
2021/07/28 06:19:34;;;;;;;14.05;8.45;;;19.70;99.90;;;;;;5054398;28;20020;-71
2021/07/28 06:22:00;;;;;;;11.30;7.97;;;19.60;99.90;;;;;;5065300;28;20056;-69
2021/07/28 06:24:26;;;;;;;10.35;7.07;;;19.70;99.90;;;;;;5060044;28;20033;-70
2021/07/28 06:26:51;;;;;;;10.30;7.05;;;19.70;99.90;;;;;;5056249;28;20048;-70
2021/07/28 06:29:17;;;;;;;13.70;8.07;;;19.80;99.90;;;;;;5055665;28;20029;-69
2021/07/28 06:31:42;;;;;;;11.00;7.28;;;19.80;99.90;;;;;;5056577;28;20033;-70
2021/07/28 06:34:08;;;;;;;13.05;7.65;;;19.80;99.90;;;;;;5058455;28;20039;-69
2021/07/28 06:36:36;;;;;;;11.82;7.38;;;19.70;99.90;;;;;;5046516;28;20118;-70
2021/07/28 06:39:02;;;;;;;10.23;7.50;;;19.80;99.90;;;;;;5046334;28;20064;-69
2021/07/28 06:41:27;;;;;;;14.65;7.85;;;19.80;99.90;;;;;;5058347;28;20024;-71
2021/07/28 06:43:53;;;;;;;13.70;8.43;;;19.90;99.90;;;;;;5053601;28;20458;-71
2021/07/28 06:46:19;;;;;;;10.93;7.55;;;19.90;99.90;;;;;;5060945;28;20033;-69
2021/07/28 06:48:44;;;;;;;12.02;8.70;;;19.80;99.90;;;;;;5059764;28;20021;-69
2021/07/28 06:51:10;;;;;;;12.93;8.35;;;20.00;99.90;;;;;;5057039;28;20060;-70
2021/07/28 06:53:35;;;;;;;10.27;7.70;;;20.00;99.90;;;;;;5058941;28;20569;-70
2021/07/28 06:56:01;;;;;;;13.00;8.52;;;20.00;99.90;;;;;;5052666;28;20025;-70
2021/07/28 06:58:27;;;;;;;12.70;7.80;;;20.10;99.90;;;;;;5063274;28;20070;-70
2021/07/28 07:00:56;;;;;;;9.70;7.55;;;20.10;99.90;;;;;;5047965;28;20543;-70
2021/07/28 07:03:22;;;;;;;10.73;6.90;;;20.10;99.90;;;;;;5056965;28;20118;-70
2021/07/28 07:05:48;;;;;;;7.95;6.28;;;20.20;99.90;;;;;;5047504;28;20461;-70
2021/07/28 07:08:15;;;;;;;12.85;6.28;;;20.20;99.90;;;;;;5063179;28;20032;-70
2021/07/28 07:10:40;;;;;;;10.65;6.82;;;20.40;99.90;;;;;;5059068;28;20017;-70
2021/07/28 07:13:07;;;;;;;10.05;6.30;;;20.40;99.90;;;;;;5052141;28;20040;-73
2021/07/28 07:15:32;;;;;;;10.88;6.32;;;20.50;99.90;;;;;;5052145;28;20017;-71
2021/07/28 07:17:58;;;;;;;10.32;6.53;;;20.50;99.90;;;;;;5053243;28;20028;-70
2021/07/28 07:20:24;;;;;;;9.98;6.45;;;20.50;99.90;;;;;;5054259;28;20032;-70
2021/07/28 07:22:49;;;;;;;11.20;6.45;;;20.40;99.90;;;;;;5052260;28;20128;-70
2021/07/28 07:25:15;;;;;;;9.20;6.18;;;20.50;99.90;;;;;;5056846;28;20060;-70
2021/07/28 07:27:42;;;;;;;11.45;6.40;;;20.70;99.90;;;;;;5057278;28;20033;-73
2021/07/28 07:30:08;;;;;;;9.48;6.40;;;20.70;99.90;;;;;;5061703;28;20465;-70
2021/07/28 07:32:34;;;;;;;13.38;6.47;;;20.70;99.90;;;;;;5052620;28;20532;-74
2021/07/28 07:35:00;;;;;;;13.57;6.07;;;20.70;99.90;;;;;;5053784;28;20025;-73
2021/07/28 07:37:26;;;;;;;7.88;6.47;;;20.70;99.90;;;;;;5058853;28;20477;-73
2021/07/28 07:39:52;;;;;;;10.05;5.78;;;20.90;99.90;;;;;;5049858;28;20469;-74
2021/07/28 07:42:18;;;;;;;8.48;5.30;;;20.90;99.90;;;;;;5035003;28;20040;-72
2021/07/28 07:44:45;;;;;;;9.02;5.05;;;21.10;99.90;;;;;;5035587;28;20108;-73
2021/07/28 07:47:11;;;;;;;6.35;5.53;;;21.10;99.90;;;;;;5053169;28;20028;-74
2021/07/28 07:49:38;;;;;;;8.80;4.90;;;21.10;99.90;;;;;;5055197;28;20025;-72
2021/07/28 07:52:04;;;;;;;9.13;5.85;;;21.30;99.90;;;;;;5053773;28;20044;-73
2021/07/28 07:54:30;;;;;;;8.70;5.40;;;21.30;99.90;;;;;;5050592;28;20028;-70
2021/07/28 07:56:55;;;;;;;7.03;5.32;;;21.30;99.90;;;;;;5042389;28;20037;-74
2021/07/28 07:59:21;;;;;;;10.43;5.38;;;21.30;99.90;;;;;;5056730;28;20043;-74
2021/07/28 08:01:47;;;;;;;8.10;5.38;;;21.40;99.90;;;;;;5057243;28;20095;-73
2021/07/28 08:04:13;;;;;;;5.95;4.90;;;21.50;99.90;;;;;;5049462;28;20032;-74
2021/07/28 08:06:38;;;;;;;9.32;5.40;;;21.50;99.90;;;;;;5049435;28;20164;-74
2021/07/28 08:09:04;;;;;;;8.77;5.20;;;21.60;99.90;;;;;;5057614;28;20059;-73
2021/07/28 08:11:30;;;;;;;7.00;4.45;;;21.70;99.90;;;;;;5056337;28;20036;-73
2021/07/28 08:13:55;;;;;;;8.20;4.15;;;21.70;99.90;;;;;;5051194;28;20020;-74
2021/07/28 08:16:22;;;;;;;10.05;5.07;;;21.90;99.90;;;;;;5054059;28;20034;-73
2021/07/28 08:18:49;;;;;;;7.20;4.78;;;22.00;99.90;;;;;;5053908;28;20946;-74
2021/07/28 08:21:15;;;;;;;5.95;4.18;;;21.90;99.90;;;;;;5054559;28;20036;-73
2021/07/28 08:23:45;;;;;;;7.47;4.60;;;21.80;99.90;;;;;;5053329;28;20033;-73
2021/07/28 08:26:13;;;;;;;8.43;4.53;;;21.70;99.90;;;;;;5051411;28;20396;-73
2021/07/28 08:28:39;;;;;;;7.43;4.90;;;21.70;99.90;;;;;;5055319;28;20032;-72
2021/07/28 08:31:04;;;;;;;6.95;4.35;;;21.80;99.90;;;;;;5061198;28;20461;-73
2021/07/28 08:33:30;;;;;;;7.45;4.47;;;21.90;99.90;;;;;;5057469;28;20083;-73
2021/07/28 08:35:57;;;;;;;9.48;5.32;;;21.90;99.90;;;;;;5063376;28;20457;-72
2021/07/28 08:38:24;;;;;;;7.22;4.63;;;21.90;99.90;;;;;;5056117;28;20039;-73
2021/07/28 08:40:55;;;;;;;12.68;4.57;;;22.00;99.90;;;;;;5059220;28;20036;-73
2021/07/28 08:43:24;;;;;;;7.97;5.20;;;22.10;99.90;;;;;;5050774;28;20021;-73
2021/07/28 08:45:52;;;;;;;7.05;3.53;;;22.30;99.90;;;;;;5048316;28;20036;-73
2021/07/28 08:48:18;;;;;;;6.28;4.43;;;22.10;99.90;;;;;;5051073;28;20796;-73
2021/07/28 08:50:47;;;;;;;6.10;3.78;;;22.10;99.90;;;;;;5055295;28;20025;-72
2021/07/28 08:53:13;;;;;;;5.43;3.65;;;22.10;99.90;;;;;;5057479;28;20049;-73
2021/07/28 08:55:39;;;;;;;7.30;3.45;;;22.10;99.90;;;;;;5050624;28;20041;-73
2021/07/28 08:58:08;;;;;;;6.28;3.80;;;22.10;99.90;;;;;;5055876;28;20103;-73
2021/07/28 09:00:47;;;;;;;8.52;4.00;;;22.30;99.90;;;;;;5052796;28;20020;-73
2021/07/28 09:03:13;;;;;;;4.65;3.47;;;22.50;99.90;;;;;;5055634;28;20089;-70
2021/07/28 09:05:41;;;;;;;5.82;2.90;;;22.60;99.90;;;;;;5052021;28;20586;-73
2021/07/28 09:08:26;;;;;;;5.10;2.80;;;22.70;99.90;;;;;;5051217;28;20053;-72
2021/07/28 09:10:57;;;;;;;6.32;3.88;;;22.90;99.90;;;;;;5052177;28;20021;-73
2021/07/28 09:13:33;;;;;;;5.45;2.83;;;23.00;99.90;;;;;;5056081;28;20078;-72
2021/07/28 09:16:10;;;;;;;5.90;2.85;;;23.00;99.90;;;;;;5055282;28;20017;-72
2021/07/28 09:18:46;;;;;;;4.43;2.90;;;23.20;99.90;;;;;;5054423;28;20071;-72
2021/07/28 09:21:29;;;;;;;3.22;2.28;;;23.40;99.90;;;;;;5059922;28;20488;-72
2021/07/28 09:24:10;;;;;;;3.55;2.50;;;23.10;99.90;;;;;;5056828;28;20060;-72
2021/07/28 09:26:42;;;;;;;3.25;2.38;;;23.30;99.90;;;;;;5057140;28;20079;-71
2021/07/28 09:29:14;;;;;;;3.83;2.40;;;23.30;99.90;;;;;;5054511;28;20393;-72
2021/07/28 09:31:39;;;;;;;4.33;3.20;;;23.50;99.90;;;;;;5051194;28;20559;-73
2021/07/28 09:34:22;;;;;;;3.65;2.70;;;23.70;99.90;;;;;;5057127;28;20044;-73
2021/07/28 09:36:51;;;;;;;3.78;2.95;;;23.90;99.90;;;;;;5050905;28;20086;-73
2021/07/28 09:39:30;;;;;;;6.60;2.80;;;23.90;99.90;;;;;;5050661;28;20029;-72
2021/07/28 09:41:58;;;;;;;3.17;2.33;;;24.10;99.90;;;;;;5059275;28;20028;-72
2021/07/28 09:44:25;;;;;;;4.00;2.30;;;24.00;99.90;;;;;;5054331;28;20017;-73
2021/07/28 09:47:06;;;;;;;3.47;2.30;;;24.20;99.90;;;;;;5056337;28;20031;-73
2021/07/28 09:49:33;;;;;;;3.63;2.22;;;24.30;99.90;;;;;;5061630;28;20414;-73
2021/07/28 09:51:58;;;;;;;5.38;2.53;;;24.40;99.90;;;;;;5058881;28;20496;-72
2021/07/28 09:54:31;;;;;;;4.78;1.95;;;24.20;99.90;;;;;;5056680;28;20041;-72
2021/07/28 09:56:58;;;;;;;2.95;2.70;;;24.40;99.90;;;;;;5051307;28;20031;-73
2021/07/28 09:59:24;;;;;;;5.78;2.65;;;24.60;99.90;;;;;;5058374;28;20107;-72
2021/07/28 10:01:55;;;;;;;3.45;2.67;;;24.60;99.90;;;;;;5053728;28;20013;-71
2021/07/28 10:04:21;;;;;;;4.30;2.58;;;24.80;99.90;;;;;;5059906;28;20062;-72
2021/07/28 10:06:48;;;;;;;4.72;2.53;;;24.70;99.90;;;;;;5061477;28;20032;-72
2021/07/28 10:09:16;;;;;;;3.08;2.55;;;24.80;99.90;;;;;;5051328;28;20028;-72
2021/07/28 10:11:50;;;;;;;3.08;2.08;;;24.80;99.90;;;;;;5059833;28;20041;-73
2021/07/28 10:14:20;;;;;;;3.90;2.47;;;24.70;99.90;;;;;;5051078;28;20387;-73
2021/07/28 10:16:52;;;;;;;3.92;2.20;;;24.60;99.90;;;;;;5053533;28;20382;-73
2021/07/28 10:19:18;;;;;;;3.17;1.90;;;24.70;99.90;;;;;;5055941;28;20503;-72
2021/07/28 10:21:45;;;;;;;3.00;2.00;;;24.60;99.90;;;;;;5056588;28;20082;-71
2021/07/28 10:24:12;;;;;;;3.10;2.30;;;24.80;99.90;;;;;;5058904;28;20574;-74
2021/07/28 10:26:40;;;;;;;4.25;2.03;;;24.60;99.90;;;;;;5054453;28;20021;-73
2021/07/28 10:29:08;;;;;;;2.47;2.17;;;24.20;99.90;;;;;;5056154;28;20362;-72
2021/07/28 10:31:53;;;;;;;4.05;1.92;;;24.10;99.90;;;;;;5056195;28;20519;-71
2021/07/28 10:34:23;;;;;;;3.10;2.10;;;24.20;99.90;;;;;;5060071;28;20115;-72
2021/07/28 10:36:49;;;;;;;5.05;1.95;;;24.40;99.90;;;;;;5054576;28;20037;-72
2021/07/28 10:39:50;;;;;;;3.85;1.90;;;24.60;99.90;;;;;;5062474;28;20027;-72
2021/07/28 10:42:16;;;;;;;3.65;2.10;;;24.80;99.90;;;;;;5055485;28;20114;-72
2021/07/28 10:45:01;;;;;;;7.45;2.25;;;24.70;99.90;;;;;;5055368;28;20049;-72
2021/07/28 10:47:40;;;;;;;2.28;1.75;;;24.90;99.90;;;;;;5054323;28;20025;-72
2021/07/28 10:50:29;;;;;;;4.65;2.25;;;24.60;99.90;;;;;;5063762;28;20024;-72
2021/07/28 10:53:02;;;;;;;2.85;2.22;;;24.50;99.90;;;;;;5054937;28;20040;-71
2021/07/28 10:55:38;;;;;;;5.30;2.15;;;24.70;99.90;;;;;;5051346;28;20386;-69
2021/07/28 10:58:07;;;;;;;7.30;2.45;;;24.80;99.90;;;;;;5056385;28;20537;-72
2021/07/28 11:00:38;;;;;;;8.40;2.35;;;25.00;99.90;;;;;;5053876;28;20025;-72
2021/07/28 11:03:12;;;;;;;4.40;2.00;;;25.00;99.90;;;;;;5061729;28;20033;-72
2021/07/28 11:05:43;;;;;;;3.38;2.20;;;25.20;99.90;;;;;;5058578;28;20094;-72
2021/07/28 11:08:09;;;;;;;4.25;1.85;;;25.50;99.90;;;;;;5053867;28;20451;-72
2021/07/28 11:10:45;;;;;;;3.75;2.00;;;25.50;99.90;;;;;;5057605;28;20035;-72
2021/07/28 11:13:13;;;;;;;5.70;2.20;;;25.40;99.90;;;;;;5055330;28;20452;-73
2021/07/28 11:15:49;;;;;;;5.47;2.15;;;25.50;99.90;;;;;;5055383;28;20025;-72
2021/07/28 11:18:15;;;;;;;4.60;1.80;;;25.40;99.90;;;;;;5054212;28;20399;-71
2021/07/28 11:20:40;;;;;;;4.47;1.55;;;25.80;99.90;;;;;;5056426;28;20095;-72
2021/07/28 11:23:21;;;;;;;2.53;1.83;;;26.00;99.90;;;;;;5059054;28;20028;-71
2021/07/28 11:25:58;;;;;;;2.22;1.70;;;26.20;99.90;;;;;;5058035;28;20075;-72
2021/07/28 11:28:25;;;;;;;4.82;2.10;;;26.30;99.70;;;;;;5050789;28;20020;-73
2021/07/28 11:30:54;;;;;;;3.85;2.35;;;26.10;99.70;;;;;;5050803;28;20029;-72
2021/07/28 11:33:20;;;;;;;6.13;1.95;;;26.00;99.90;;;;;;5053402;28;20055;-70
2021/07/28 11:35:47;;;;;;;2.50;1.83;;;25.70;99.90;;;;;;5054082;28;20029;-72
2021/07/28 11:38:17;;;;;;;3.38;1.80;;;25.90;99.90;;;;;;5059381;28;20033;-72
2021/07/28 11:40:44;;;;;;;2.50;2.15;;;25.80;99.90;;;;;;5048745;28;20021;-72
2021/07/28 11:43:29;;;;;;;6.00;2.33;;;25.60;99.90;;;;;;5055170;28;20037;-71
2021/07/28 11:45:55;;;;;;;4.30;1.75;;;25.50;99.90;;;;;;5051698;28;20477;-72
2021/07/28 11:48:34;;;;;;;8.45;1.85;;;25.20;99.90;;;;;;5050269;28;20037;-71
2021/07/28 11:51:08;;;;;;;2.85;1.65;;;25.10;99.90;;;;;;5061665;28;20021;-72
2021/07/28 11:53:35;;;;;;;2.75;1.80;;;25.10;99.90;;;;;;5057807;28;20066;-71
2021/07/28 11:56:06;;;;;;;4.05;1.80;;;25.30;99.90;;;;;;5047323;28;20095;-71
2021/07/28 11:58:33;;;;;;;3.08;2.00;;;25.30;99.90;;;;;;5055194;28;20036;-72
2021/07/28 12:01:15;;;;;;;2.13;1.67;;;25.30;99.90;;;;;;5051421;28;20029;-73
2021/07/28 12:03:50;;;;;;;4.53;2.22;;;25.10;99.90;;;;;;5055069;28;20511;-72
2021/07/28 12:06:28;;;;;;;3.78;2.30;;;25.70;99.90;;;;;;5059452;28;20108;-72
2021/07/28 12:09:08;;;;;;;8.43;2.13;;;25.90;99.90;;;;;;5051476;28;20481;-73
2021/07/28 12:11:46;;;;;;;5.10;1.92;;;26.00;99.90;;;;;;5056630;28;20047;-69
2021/07/28 12:14:21;;;;;;;2.42;1.83;;;26.10;99.90;;;;;;5054898;28;20096;-72
2021/07/28 12:16:47;;;;;;;6.55;1.80;;;26.30;99.90;;;;;;5048709;28;20033;-72
2021/07/28 12:19:13;;;;;;;4.57;2.00;;;26.20;99.90;;;;;;5051237;28;20538;-72
2021/07/28 12:21:52;;;;;;;2.85;1.88;;;25.90;99.90;;;;;;5061022;28;20029;-72
2021/07/28 12:24:49;;;;;;;5.10;2.40;;;26.10;99.90;;;;;;5058728;28;20029;-73
2021/07/28 12:27:29;;;;;;;6.05;2.13;;;26.50;99.90;;;;;;5055697;28;20066;-72
2021/07/28 12:30:03;;;;;;;3.95;1.80;;;26.50;99.90;;;;;;5059169;28;20037;-73
2021/07/28 12:32:38;;;;;;;4.22;2.10;;;26.40;99.70;;;;;;5054002;28;20036;-72
2021/07/28 12:35:06;;;;;;;5.35;2.28;;;26.30;99.90;;;;;;5056728;28;20035;-70
2021/07/28 12:37:31;;;;;;;4.45;1.70;;;26.30;99.20;;;;;;5049067;28;20396;-72
2021/07/28 12:39:58;;;;;;;3.17;2.05;;;26.20;99.90;;;;;;5059651;28;20032;-72
2021/07/28 12:42:24;;;;;;;3.65;2.15;;;25.80;99.90;;;;;;5049904;28;20056;-72
2021/07/28 12:44:51;;;;;;;5.30;2.33;;;25.40;98.70;;;;;;5055589;28;20479;-70
2021/07/28 12:47:20;;;;;;;4.05;1.88;;;25.60;99.90;;;;;;5045530;28;20397;-72
2021/07/28 12:49:45;;;;;;;4.40;1.77;;;25.90;99.90;;;;;;5048660;28;20017;-72